createdAt,value
2018-02-15T00:00:16.043Z,1009.58
2018-02-15T00:01:15.993Z,1009.55
2018-02-15T00:02:15.945Z,1009.56
2018-02-15T00:03:15.897Z,1009.58
2018-02-15T00:04:15.847Z,1009.58
2018-02-15T00:05:15.798Z,1009.60
2018-02-15T00:06:15.752Z,1009.51
2018-02-15T00:07:15.701Z,1009.52
2018-02-15T00:08:15.657Z,1009.60
2018-02-15T00:09:15.605Z,1009.57
2018-02-15T00:10:15.554Z,1009.57
2018-02-15T00:11:15.513Z,1009.54
2018-02-15T00:12:15.460Z,1009.52
2018-02-15T00:13:15.411Z,1009.48
2018-02-15T00:14:15.368Z,1009.51
2018-02-15T00:15:15.316Z,1009.48
2018-02-15T00:16:15.262Z,1009.46
2018-02-15T00:17:15.223Z,1009.42
2018-02-15T00:18:15.169Z,1009.33
2018-02-15T00:19:15.120Z,1009.31
2018-02-15T00:20:15.071Z,1009.30
2018-02-15T00:21:15.023Z,1009.30
2018-02-15T00:22:14.976Z,1009.30
2018-02-15T00:23:14.922Z,1009.36
2018-02-15T00:24:14.873Z,1009.41
2018-02-15T00:25:14.828Z,1009.29
2018-02-15T00:26:14.777Z,1009.32
2018-02-15T00:27:14.729Z,1009.26
2018-02-15T00:28:14.680Z,1009.23
2018-02-15T00:29:14.631Z,1009.16
2018-02-15T00:30:14.584Z,1009.07
2018-02-15T00:31:14.535Z,1009.05
2018-02-15T00:32:14.488Z,1009.14
2018-02-15T00:33:14.439Z,1009.06
2018-02-15T00:34:14.388Z,1009.04
2018-02-15T00:35:14.342Z,1009.17
2018-02-15T00:36:14.290Z,1009.09
2018-02-15T00:37:14.242Z,1009.13
2018-02-15T00:38:14.194Z,1009.20
2018-02-15T00:39:14.146Z,1009.20
2018-02-15T00:40:14.098Z,1009.20
2018-02-15T00:41:14.049Z,1009.11
2018-02-15T00:42:13.999Z,1009.15
2018-02-15T00:43:13.951Z,1009.12
2018-02-15T00:44:13.903Z,1009.13
2018-02-15T00:45:13.855Z,1009.14
2018-02-15T00:46:13.808Z,1009.15
2018-02-15T00:47:13.760Z,1009.08
2018-02-15T00:48:13.706Z,1009.06
2018-02-15T00:49:13.657Z,1009.15
2018-02-15T00:50:13.614Z,1009.06
2018-02-15T00:51:13.563Z,1009.05
2018-02-15T00:52:13.518Z,1009.02
2018-02-15T00:53:13.463Z,1009.06
2018-02-15T00:54:13.419Z,1008.97
2018-02-15T00:55:13.369Z,1008.98
2018-02-15T00:56:13.319Z,1008.94
2018-02-15T00:57:13.270Z,1008.97
2018-02-15T00:58:13.223Z,1008.91
2018-02-15T00:59:13.176Z,1008.94
2018-02-15T01:00:13.129Z,1008.94
2018-02-15T01:01:13.081Z,1009.04
2018-02-15T01:02:13.028Z,1009.02
2018-02-15T01:03:12.981Z,1009.06
2018-02-15T01:04:12.929Z,1008.82
2018-02-15T01:05:12.885Z,1008.74
2018-02-15T01:06:12.834Z,1008.72
2018-02-15T01:07:12.787Z,1008.62
2018-02-15T01:08:12.733Z,1008.57
2018-02-15T01:09:12.687Z,1008.56
2018-02-15T01:10:12.639Z,1008.48
2018-02-15T01:11:12.589Z,1008.49
2018-02-15T01:12:12.539Z,1008.47
2018-02-15T01:13:12.491Z,1008.53
2018-02-15T01:14:12.445Z,1008.42
2018-02-15T01:15:12.394Z,1008.41
2018-02-15T01:16:12.350Z,1008.39
2018-02-15T01:17:12.300Z,1008.34
2018-02-15T01:18:12.248Z,1008.34
2018-02-15T01:19:12.205Z,1008.17
2018-02-15T01:20:12.150Z,1008.31
2018-02-15T01:21:12.104Z,1008.21
2018-02-15T01:22:12.057Z,1008.36
2018-02-15T01:23:12.007Z,1008.32
2018-02-15T01:24:11.960Z,1008.29
2018-02-15T01:25:11.909Z,1008.26
2018-02-15T01:26:11.860Z,1008.30
2018-02-15T01:27:11.815Z,1008.13
2018-02-15T01:28:11.763Z,1008.18
2018-02-15T01:29:11.714Z,1008.22
2018-02-15T01:30:11.667Z,1008.20
2018-02-15T01:31:11.616Z,1008.14
2018-02-15T01:32:11.567Z,1008.25
2018-02-15T01:33:11.524Z,1008.17
2018-02-15T01:34:11.470Z,1008.16
2018-02-15T01:35:11.421Z,1008.04
2018-02-15T01:36:11.373Z,1007.93
2018-02-15T01:37:11.324Z,1008.02
2018-02-15T01:38:11.275Z,1008.02
2018-02-15T01:39:11.235Z,1008.09
2018-02-15T01:40:11.182Z,1007.97
2018-02-15T01:41:11.130Z,1007.98
2018-02-15T01:42:11.087Z,1008.05
2018-02-15T01:43:11.034Z,1008.02
2018-02-15T01:44:10.982Z,1008.11
2018-02-15T01:45:10.935Z,1008.06
2018-02-15T01:46:10.890Z,1008.13
2018-02-15T01:47:10.841Z,1008.13
2018-02-15T01:48:10.788Z,1008.04
2018-02-15T01:49:10.741Z,1008.24
2018-02-15T01:50:10.691Z,1008.13
2018-02-15T01:51:10.642Z,1008.18
2018-02-15T01:52:10.639Z,1008.28
2018-02-15T01:53:10.548Z,1008.28
2018-02-15T01:54:10.499Z,1008.18
2018-02-15T01:55:10.490Z,1008.04
2018-02-15T01:56:10.403Z,1008.14
2018-02-15T01:57:10.433Z,1008.15
2018-02-15T01:58:10.510Z,1008.24
2018-02-15T01:59:10.255Z,1008.22
2018-02-15T02:00:10.208Z,1008.08
2018-02-15T02:01:10.161Z,1008.08
2018-02-15T02:02:10.109Z,1008.18
2018-02-15T02:03:10.061Z,1008.15
2018-02-15T02:04:10.018Z,1008.08
2018-02-15T02:05:09.964Z,1007.98
2018-02-15T02:06:09.917Z,1008.02
2018-02-15T02:07:09.866Z,1008.04
2018-02-15T02:08:09.820Z,1007.94
2018-02-15T02:09:09.771Z,1008.05
2018-02-15T02:10:09.721Z,1008.02
2018-02-15T02:11:09.678Z,1008.09
2018-02-15T02:12:09.632Z,1008.05
2018-02-15T02:13:09.576Z,1008.15
2018-02-15T02:14:09.528Z,1008.16
2018-02-15T02:15:09.481Z,1008.24
2018-02-15T02:16:09.436Z,1008.20
2018-02-15T02:17:09.381Z,1008.16
2018-02-15T02:18:09.335Z,1008.22
2018-02-15T02:19:09.283Z,1008.23
2018-02-15T02:20:09.234Z,1008.19
2018-02-15T02:21:09.191Z,1008.28
2018-02-15T02:22:09.138Z,1008.20
2018-02-15T02:23:09.093Z,1008.22
2018-02-15T02:24:09.041Z,1008.21
2018-02-15T02:25:08.995Z,1008.21
2018-02-15T02:26:08.945Z,1008.17
2018-02-15T02:27:08.898Z,1008.14
2018-02-15T02:28:08.846Z,1008.08
2018-02-15T02:29:08.801Z,1008.09
2018-02-15T02:30:08.751Z,1007.99
2018-02-15T02:31:08.704Z,1008.05
2018-02-15T02:32:08.654Z,1007.95
2018-02-15T02:33:08.603Z,1008.10
2018-02-15T02:34:08.558Z,1008.01
2018-02-15T02:35:08.507Z,1007.89
2018-02-15T02:36:08.466Z,1007.96
2018-02-15T02:37:08.415Z,1007.93
2018-02-15T02:38:08.368Z,1007.95
2018-02-15T02:39:08.314Z,1007.95
2018-02-15T02:40:08.265Z,1007.89
2018-02-15T02:41:08.218Z,1007.79
2018-02-15T02:42:08.168Z,1007.92
2018-02-15T02:43:08.119Z,1007.86
2018-02-15T02:44:08.076Z,1007.92
2018-02-15T02:45:08.025Z,1007.90
2018-02-15T02:46:07.973Z,1007.83
2018-02-15T02:47:07.926Z,1007.89
2018-02-15T02:48:07.880Z,1007.79
2018-02-15T02:49:07.830Z,1007.77
2018-02-15T02:50:07.781Z,1007.87
2018-02-15T02:51:07.731Z,1007.83
2018-02-15T02:52:07.681Z,1007.77
2018-02-15T02:53:07.633Z,1007.85
2018-02-15T02:54:07.585Z,1007.74
2018-02-15T02:55:07.539Z,1007.78
2018-02-15T02:56:07.489Z,1007.83
2018-02-15T02:57:07.438Z,1007.76
2018-02-15T02:58:07.392Z,1007.78
2018-02-15T02:59:07.344Z,1007.71
2018-02-15T03:00:07.299Z,1007.70
2018-02-15T03:01:07.247Z,1007.65
2018-02-15T03:02:07.200Z,1007.63
2018-02-15T03:03:07.147Z,1007.63
2018-02-15T03:04:07.101Z,1007.58
2018-02-15T03:05:07.056Z,1007.61
2018-02-15T03:06:07.003Z,1007.72
2018-02-15T03:07:06.972Z,1007.64
2018-02-15T03:08:06.904Z,1007.76
2018-02-15T03:09:06.856Z,1007.65
2018-02-15T03:10:06.808Z,1007.70
2018-02-15T03:11:06.761Z,1007.72
2018-02-15T03:12:06.710Z,1007.76
2018-02-15T03:13:06.665Z,1007.74
2018-02-15T03:14:06.614Z,1007.66
2018-02-15T03:15:06.570Z,1007.59
2018-02-15T03:16:06.518Z,1007.69
2018-02-15T03:17:06.470Z,1007.68
2018-02-15T03:18:06.422Z,1007.69
2018-02-15T03:19:06.370Z,1007.69
2018-02-15T03:20:06.324Z,1007.67
2018-02-15T03:21:06.276Z,1007.72
2018-02-15T03:22:06.235Z,1007.73
2018-02-15T03:23:06.180Z,1007.70
2018-02-15T03:24:06.134Z,1007.77
2018-02-15T03:25:06.086Z,1007.75
2018-02-15T03:26:06.031Z,1007.73
2018-02-15T03:27:05.985Z,1007.75
2018-02-15T03:28:05.940Z,1007.72
2018-02-15T03:29:05.890Z,1007.75
2018-02-15T03:30:05.840Z,1007.84
2018-02-15T03:31:05.794Z,1007.83
2018-02-15T03:32:05.749Z,1007.63
2018-02-15T03:33:05.694Z,1007.82
2018-02-15T03:34:05.644Z,1007.75
2018-02-15T03:35:05.599Z,1007.94
2018-02-15T03:36:05.547Z,1007.92
2018-02-15T03:37:05.502Z,1007.95
2018-02-15T03:38:05.453Z,1007.87
2018-02-15T03:39:05.403Z,1007.90
2018-02-15T03:40:05.357Z,1007.67
2018-02-15T03:41:05.306Z,1007.78
2018-02-15T03:42:05.257Z,1007.93
2018-02-15T03:43:05.209Z,1007.85
2018-02-15T03:44:05.164Z,1007.75
2018-02-15T03:45:05.114Z,1007.81
2018-02-15T03:46:05.063Z,1007.84
2018-02-15T03:47:05.017Z,1007.92
2018-02-15T03:48:04.968Z,1008.07
2018-02-15T03:49:04.917Z,1008.05
2018-02-15T03:50:04.929Z,1007.99
2018-02-15T03:51:04.941Z,1008.04
2018-02-15T03:52:04.772Z,1008.02
2018-02-15T03:53:04.725Z,1008.03
2018-02-15T03:54:04.674Z,1008.09
2018-02-15T03:55:04.625Z,1008.07
2018-02-15T03:56:04.576Z,1008.09
2018-02-15T03:57:04.527Z,1008.17
2018-02-15T03:58:04.478Z,1008.10
2018-02-15T03:59:04.430Z,1008.06
2018-02-15T04:00:04.385Z,1008.12
2018-02-15T04:01:04.331Z,1008.13
2018-02-15T04:02:04.283Z,1008.08
2018-02-15T04:03:04.234Z,1008.09
2018-02-15T04:04:04.186Z,1008.15
2018-02-15T04:05:04.133Z,1008.07
2018-02-15T04:06:04.090Z,1008.07
2018-02-15T04:07:04.042Z,1008.00
2018-02-15T04:08:03.992Z,1008.07
2018-02-15T04:09:03.938Z,1008.14
2018-02-15T04:10:03.893Z,1008.10
2018-02-15T04:11:03.842Z,1008.10
2018-02-15T04:12:03.792Z,1008.12
2018-02-15T04:13:03.757Z,1008.07
2018-02-15T04:14:03.694Z,1007.99
2018-02-15T04:15:03.647Z,1007.99
2018-02-15T04:16:03.600Z,1007.93
2018-02-15T04:17:03.553Z,1007.98
2018-02-15T04:18:03.495Z,1007.94
2018-02-15T04:19:03.448Z,1007.91
2018-02-15T04:20:03.398Z,1007.88
2018-02-15T04:21:03.350Z,1007.84
2018-02-15T04:22:03.301Z,1007.85
2018-02-15T04:23:03.271Z,1007.82
2018-02-15T04:24:03.204Z,1007.77
2018-02-15T04:25:03.153Z,1007.86
2018-02-15T04:26:03.102Z,1007.78
2018-02-15T04:27:03.054Z,1007.82
2018-02-15T04:28:03.003Z,1007.78
2018-02-15T04:29:02.954Z,1007.76
2018-02-15T04:30:02.912Z,1007.81
2018-02-15T04:31:02.861Z,1007.78
2018-02-15T04:32:02.807Z,1007.77
2018-02-15T04:33:02.760Z,1007.79
2018-02-15T04:34:02.713Z,1007.80
2018-02-15T04:35:02.663Z,1007.77
2018-02-15T04:36:02.609Z,1007.75
2018-02-15T04:37:02.562Z,1007.76
2018-02-15T04:38:02.512Z,1007.71
2018-02-15T04:39:02.460Z,1007.72
2018-02-15T04:40:02.411Z,1007.72
2018-02-15T04:41:02.366Z,1007.70
2018-02-15T04:42:02.312Z,1007.61
2018-02-15T04:43:02.268Z,1007.60
2018-02-15T04:44:02.213Z,1007.58
2018-02-15T04:45:02.164Z,1007.64
2018-02-15T04:46:02.143Z,1007.69
2018-02-15T04:47:02.071Z,1007.62
2018-02-15T04:48:02.014Z,1007.63
2018-02-15T04:49:01.967Z,1007.66
2018-02-15T04:50:01.921Z,1007.65
2018-02-15T04:51:01.866Z,1007.60
2018-02-15T04:52:01.815Z,1007.64
2018-02-15T04:53:01.769Z,1007.69
2018-02-15T04:54:01.723Z,1007.54
2018-02-15T04:55:01.675Z,1007.62
2018-02-15T04:56:01.616Z,1007.57
2018-02-15T04:57:01.566Z,1007.55
2018-02-15T04:58:01.519Z,1007.53
2018-02-15T04:59:01.470Z,1007.52
2018-02-15T05:00:01.421Z,1007.44
2018-02-15T05:01:01.371Z,1007.48
2018-02-15T05:02:01.320Z,1007.38
2018-02-15T05:03:01.273Z,1007.36
2018-02-15T05:04:01.221Z,1007.38
2018-02-15T05:05:01.172Z,1007.35
2018-02-15T05:06:01.123Z,1007.28
2018-02-15T05:07:01.072Z,1007.30
2018-02-15T05:08:01.024Z,1007.20
2018-02-15T05:09:00.970Z,1007.13
2018-02-15T05:10:00.932Z,1007.17
2018-02-15T05:11:00.874Z,1007.13
2018-02-15T05:12:00.827Z,1007.17
2018-02-15T05:13:00.785Z,1007.16
2018-02-15T05:14:00.725Z,1007.08
2018-02-15T05:15:00.675Z,1007.20
2018-02-15T05:16:00.625Z,1007.12
2018-02-15T05:17:00.575Z,1007.12
2018-02-15T05:18:00.524Z,1007.10
2018-02-15T05:19:00.478Z,1007.09
2018-02-15T05:20:00.425Z,1007.01
2018-02-15T05:21:00.382Z,1006.96
2018-02-15T05:22:00.323Z,1007.04
2018-02-15T05:23:00.274Z,1007.13
2018-02-15T05:24:00.227Z,1007.12
2018-02-15T05:25:00.183Z,1007.03
2018-02-15T05:26:00.124Z,1007.05
2018-02-15T05:27:00.073Z,1006.98
2018-02-15T05:28:00.030Z,1007.07
2018-02-15T05:28:59.975Z,1007.05
2018-02-15T05:29:59.927Z,1006.96
2018-02-15T05:30:59.876Z,1006.96
2018-02-15T05:31:59.825Z,1007.01
2018-02-15T05:32:59.776Z,1006.91
2018-02-15T05:33:59.729Z,1006.87
2018-02-15T05:34:59.675Z,1006.82
2018-02-15T05:35:59.628Z,1006.76
2018-02-15T05:36:59.583Z,1006.82
2018-02-15T05:37:59.524Z,1006.78
2018-02-15T05:38:59.477Z,1006.83
2018-02-15T05:39:59.430Z,1006.82
2018-02-15T05:40:59.375Z,1006.84
2018-02-15T05:41:59.326Z,1006.84
2018-02-15T05:42:59.278Z,1006.82
2018-02-15T05:43:59.232Z,1006.86
2018-02-15T05:44:59.181Z,1006.78
2018-02-15T05:45:59.123Z,1006.79
2018-02-15T05:46:59.078Z,1006.69
2018-02-15T05:47:59.026Z,1006.61
2018-02-15T05:48:58.977Z,1006.54
2018-02-15T05:49:58.925Z,1006.57
2018-02-15T05:50:58.876Z,1006.53
2018-02-15T05:51:58.834Z,1006.42
2018-02-15T05:52:58.778Z,1006.53
2018-02-15T05:53:58.733Z,1006.63
2018-02-15T05:54:58.683Z,1006.50
2018-02-15T05:55:58.627Z,1006.35
2018-02-15T05:56:58.578Z,1006.40
2018-02-15T05:57:58.528Z,1006.28
2018-02-15T05:58:58.477Z,1006.36
2018-02-15T05:59:58.427Z,1006.39
2018-02-15T06:00:58.376Z,1006.40
2018-02-15T06:01:58.328Z,1006.41
2018-02-15T06:02:58.280Z,1006.44
2018-02-15T06:03:58.229Z,1006.40
2018-02-15T06:04:58.176Z,1006.44
2018-02-15T06:05:58.126Z,1006.38
2018-02-15T06:06:58.079Z,1006.33
2018-02-15T06:07:58.027Z,1006.30
2018-02-15T06:08:57.975Z,1006.34
2018-02-15T06:09:57.928Z,1006.19
2018-02-15T06:10:57.877Z,1006.32
2018-02-15T06:11:57.826Z,1006.18
2018-02-15T06:12:57.778Z,1006.28
2018-02-15T06:13:57.729Z,1006.27
2018-02-15T06:14:57.675Z,1006.15
2018-02-15T06:15:57.625Z,1006.29
2018-02-15T06:16:57.581Z,1006.18
2018-02-15T06:17:57.537Z,1006.25
2018-02-15T06:18:57.477Z,1006.24
2018-02-15T06:19:57.426Z,1006.22
2018-02-15T06:20:57.376Z,1006.19
2018-02-15T06:21:57.332Z,1006.23
2018-02-15T06:22:57.276Z,1006.23
2018-02-15T06:23:57.228Z,1006.26
2018-02-15T06:24:57.178Z,1006.31
2018-02-15T06:25:57.124Z,1006.41
2018-02-15T06:26:57.080Z,1006.30
2018-02-15T06:27:57.028Z,1006.37
2018-02-15T06:28:56.977Z,1006.32
2018-02-15T06:29:56.937Z,1006.35
2018-02-15T06:30:56.877Z,1006.34
2018-02-15T06:31:56.828Z,1006.25
2018-02-15T06:32:56.777Z,1006.31
2018-02-15T06:33:56.737Z,1006.29
2018-02-15T06:34:56.682Z,1006.35
2018-02-15T06:35:56.629Z,1006.33
2018-02-15T06:36:56.576Z,1006.30
2018-02-15T06:37:56.526Z,1006.29
2018-02-15T06:38:56.482Z,1006.16
2018-02-15T06:39:56.428Z,1006.27
2018-02-15T06:40:56.380Z,1006.37
2018-02-15T06:41:56.330Z,1006.32
2018-02-15T06:42:56.279Z,1006.31
2018-02-15T06:43:56.230Z,1006.35
2018-02-15T06:44:56.180Z,1006.29
2018-02-15T06:45:56.134Z,1006.35
2018-02-15T06:46:56.078Z,1006.34
2018-02-15T06:47:56.032Z,1006.32
2018-02-15T06:48:55.980Z,1006.32
2018-02-15T06:49:55.935Z,1006.31
2018-02-15T06:50:55.881Z,1006.31
2018-02-15T06:51:55.829Z,1006.32
2018-02-15T06:52:55.779Z,1006.32
2018-02-15T06:54:55.683Z,1006.36
2018-02-15T06:55:55.633Z,1006.28
2018-02-15T06:56:55.590Z,1006.35
2018-02-15T06:57:55.535Z,1006.29
2018-02-15T06:58:55.482Z,1006.33
2018-02-15T06:59:55.433Z,1006.26
2018-02-15T07:00:55.380Z,1006.31
2018-02-15T07:01:55.332Z,1006.29
2018-02-15T07:02:55.286Z,1006.25
2018-02-15T07:03:55.231Z,1006.34
2018-02-15T07:04:55.186Z,1006.23
2018-02-15T07:05:55.141Z,1006.38
2018-02-15T07:06:55.085Z,1006.37
2018-02-15T07:07:55.037Z,1006.50
2018-02-15T07:08:57.686Z,1006.40
2018-02-15T07:09:54.936Z,1006.42
2018-02-15T07:10:54.891Z,1006.44
2018-02-15T07:11:54.874Z,1006.37
2018-02-15T07:12:54.786Z,1006.31
2018-02-15T07:13:54.738Z,1006.29
2018-02-15T07:14:54.688Z,1006.25
2018-02-15T07:15:54.636Z,1006.36
2018-02-15T07:16:54.587Z,1006.30
2018-02-15T07:17:54.538Z,1006.37
2018-02-15T07:18:54.485Z,1006.33
2018-02-15T07:19:54.435Z,1006.37
2018-02-15T07:20:54.391Z,1006.31
2018-02-15T07:21:54.335Z,1006.28
2018-02-15T07:22:54.289Z,1006.33
2018-02-15T07:23:54.240Z,1006.38
2018-02-15T07:24:54.189Z,1006.26
2018-02-15T07:25:54.137Z,1006.27
2018-02-15T07:26:54.087Z,1006.28
2018-02-15T07:27:54.036Z,1006.33
2018-02-15T07:28:53.993Z,1006.14
2018-02-15T07:29:53.944Z,1006.29
2018-02-15T07:30:53.890Z,1006.29
2018-02-15T07:31:53.843Z,1006.26
2018-02-15T07:32:53.792Z,1006.34
2018-02-15T07:33:53.742Z,1006.27
2018-02-15T07:34:53.691Z,1006.23
2018-02-15T07:35:53.641Z,1006.20
2018-02-15T07:36:53.592Z,1006.29
2018-02-15T07:37:53.542Z,1006.29
2018-02-15T07:38:53.493Z,1006.36
2018-02-15T07:39:53.445Z,1006.34
2018-02-15T07:40:53.396Z,1006.21
2018-02-15T07:41:53.347Z,1006.25
2018-02-15T07:42:53.296Z,1006.25
2018-02-15T07:43:53.246Z,1006.22
2018-02-15T07:44:53.198Z,1006.22
2018-02-15T07:45:53.149Z,1006.30
2018-02-15T07:46:53.098Z,1006.24
2018-02-15T07:47:53.046Z,1006.41
2018-02-15T07:48:52.996Z,1006.27
2018-02-15T07:49:52.951Z,1006.20
2018-02-15T07:50:52.900Z,1006.24
2018-02-15T07:51:52.848Z,1006.33
2018-02-15T07:52:52.798Z,1006.15
2018-02-15T07:53:52.750Z,1006.23
2018-02-15T07:54:52.700Z,1006.17
2018-02-15T07:55:52.653Z,1006.37
2018-02-15T07:56:52.600Z,1006.14
2018-02-15T07:57:52.553Z,1006.15
2018-02-15T07:58:52.506Z,1006.20
2018-02-15T07:59:52.452Z,1006.10
2018-02-15T08:00:52.402Z,1006.11
2018-02-15T08:01:52.354Z,1006.31
2018-02-15T08:02:52.305Z,1006.20
2018-02-15T08:03:52.254Z,1006.09
2018-02-15T08:04:52.204Z,1006.26
2018-02-15T08:05:52.157Z,1006.19
2018-02-15T08:06:52.106Z,1006.25
2018-02-15T08:07:52.061Z,1006.17
2018-02-15T08:08:52.011Z,1006.18
2018-02-15T08:09:51.957Z,1006.29
2018-02-15T08:10:51.908Z,1006.21
2018-02-15T08:11:51.860Z,1006.14
2018-02-15T08:12:51.807Z,1006.23
2018-02-15T08:13:51.760Z,1006.22
2018-02-15T08:14:51.715Z,1006.37
2018-02-15T08:15:51.663Z,1006.30
2018-02-15T08:16:51.610Z,1006.32
2018-02-15T08:17:51.564Z,1006.30
2018-02-15T08:18:51.517Z,1006.28
2018-02-15T08:19:51.462Z,1006.33
2018-02-15T08:20:51.414Z,1006.34
2018-02-15T08:21:51.365Z,1006.18
2018-02-15T08:22:51.340Z,1006.26
2018-02-15T08:23:51.272Z,1006.37
2018-02-15T08:24:51.216Z,1006.35
2018-02-15T08:25:51.171Z,1006.41
2018-02-15T08:26:51.120Z,1006.39
2018-02-15T08:27:51.071Z,1006.34
2018-02-15T08:28:51.020Z,1006.45
2018-02-15T08:29:50.974Z,1006.36
2018-02-15T08:30:50.921Z,1006.36
2018-02-15T08:31:50.872Z,1006.49
2018-02-15T08:32:50.826Z,1006.40
2018-02-15T08:33:50.808Z,1006.37
2018-02-15T08:34:50.725Z,1006.35
2018-02-15T08:35:50.675Z,1006.38
2018-02-15T08:36:50.626Z,1006.42
2018-02-15T08:37:50.578Z,1006.44
2018-02-15T08:38:50.526Z,1006.49
2018-02-15T08:39:50.478Z,1006.36
2018-02-15T08:40:50.430Z,1006.36
2018-02-15T08:41:50.383Z,1006.47
2018-02-15T08:42:50.330Z,1006.46
2018-02-15T08:43:50.293Z,1006.45
2018-02-15T08:44:50.231Z,1006.43
2018-02-15T08:45:50.183Z,1006.39
2018-02-15T08:46:50.132Z,1006.41
2018-02-15T08:47:50.083Z,1006.46
2018-02-15T08:48:50.034Z,1006.48
2018-02-15T08:49:49.984Z,1006.43
2018-02-15T08:50:49.937Z,1006.34
2018-02-15T08:51:49.885Z,1006.35
2018-02-15T08:52:49.838Z,1006.34
2018-02-15T08:53:49.787Z,1006.40
2018-02-15T08:54:49.740Z,1006.54
2018-02-15T08:55:49.691Z,1006.37
2018-02-15T08:56:49.645Z,1006.46
2018-02-15T08:57:49.596Z,1006.41
2018-02-15T08:58:49.543Z,1006.47
2018-02-15T08:59:49.496Z,1006.47
2018-02-15T09:00:49.446Z,1006.50
2018-02-15T09:01:49.395Z,1006.61
2018-02-15T09:02:49.347Z,1006.65
2018-02-15T09:03:49.298Z,1006.53
2018-02-15T09:04:49.253Z,1006.56
2018-02-15T09:05:49.201Z,1006.47
2018-02-15T09:06:49.150Z,1006.45
2018-02-15T09:07:49.100Z,1006.55
2018-02-15T09:08:49.051Z,1006.53
2018-02-15T09:09:49.006Z,1006.54
2018-02-15T09:10:48.951Z,1006.55
2018-02-15T09:11:48.907Z,1006.45
2018-02-15T09:12:48.855Z,1006.48
2018-02-15T09:13:48.809Z,1006.44
2018-02-15T09:14:48.759Z,1006.52
2018-02-15T09:15:48.706Z,1006.46
2018-02-15T09:16:48.658Z,1006.50
2018-02-15T09:17:48.608Z,1006.50
2018-02-15T09:18:48.561Z,1006.65
2018-02-15T09:19:48.509Z,1006.53
2018-02-15T09:20:48.465Z,1006.49
2018-02-15T09:21:48.415Z,1006.52
2018-02-15T09:22:48.367Z,1006.46
2018-02-15T09:23:48.316Z,1006.53
2018-02-15T09:24:48.268Z,1006.50
2018-02-15T09:25:48.219Z,1006.45
2018-02-15T09:26:48.173Z,1006.46
2018-02-15T09:27:48.118Z,1006.46
2018-02-15T09:28:48.069Z,1006.34
2018-02-15T09:29:48.027Z,1006.47
2018-02-15T09:30:47.974Z,1006.40
2018-02-15T09:31:47.925Z,1006.50
2018-02-15T09:32:47.876Z,1006.63
2018-02-15T09:33:47.822Z,1006.54
2018-02-15T09:34:47.779Z,1006.60
2018-02-15T09:35:47.729Z,1006.55
2018-02-15T09:36:47.683Z,1006.59
2018-02-15T09:37:47.632Z,1006.57
2018-02-15T09:38:47.580Z,1006.58
2018-02-15T09:39:47.529Z,1006.73
2018-02-15T09:40:47.482Z,1006.65
2018-02-15T09:41:47.435Z,1006.74
2018-02-15T09:42:47.383Z,1006.71
2018-02-15T09:43:47.339Z,1006.72
2018-02-15T09:44:47.290Z,1006.64
2018-02-15T09:45:47.291Z,1006.66
2018-02-15T09:46:47.198Z,1006.71
2018-02-15T09:47:47.139Z,1006.75
2018-02-15T09:48:47.089Z,1006.76
2018-02-15T09:49:47.044Z,1006.74
2018-02-15T09:50:46.993Z,1006.77
2018-02-15T09:51:46.940Z,1006.72
2018-02-15T09:52:46.897Z,1006.82
2018-02-15T09:53:46.849Z,1006.72
2018-02-15T09:54:46.796Z,1006.78
2018-02-15T09:55:46.746Z,1006.84
2018-02-15T09:56:46.696Z,1006.76
2018-02-15T09:57:46.647Z,1006.69
2018-02-15T09:58:46.598Z,1006.73
2018-02-15T09:59:46.553Z,1006.75
2018-02-15T10:00:46.504Z,1006.75
2018-02-15T10:01:46.452Z,1006.79
2018-02-15T10:02:46.403Z,1006.69
2018-02-15T10:03:46.353Z,1006.81
2018-02-15T10:04:46.304Z,1006.80
2018-02-15T10:05:46.257Z,1006.79
2018-02-15T10:06:46.207Z,1006.81
2018-02-15T10:07:46.159Z,1007.02
2018-02-15T10:08:46.115Z,1006.71
2018-02-15T10:09:46.065Z,1006.74
2018-02-15T10:10:46.017Z,1006.77
2018-02-15T10:11:45.965Z,1006.79
2018-02-15T10:12:45.922Z,1006.76
2018-02-15T10:13:45.865Z,1006.75
2018-02-15T10:14:45.815Z,1006.87
2018-02-15T10:15:45.767Z,1006.84
2018-02-15T10:16:45.719Z,1006.73
2018-02-15T10:17:45.672Z,1006.82
2018-02-15T10:18:45.619Z,1006.82
2018-02-15T10:19:45.568Z,1006.75
2018-02-15T10:20:45.524Z,1006.72
2018-02-15T10:21:45.474Z,1006.81
2018-02-15T10:22:45.434Z,1006.69
2018-02-15T10:23:45.376Z,1006.89
2018-02-15T10:24:45.326Z,1006.75
2018-02-15T10:25:45.279Z,1006.55
2018-02-15T10:26:45.233Z,1006.79
2018-02-15T10:27:45.178Z,1006.78
2018-02-15T10:28:45.130Z,1006.79
2018-02-15T10:29:45.085Z,1006.78
2018-02-15T10:30:45.035Z,1006.76
2018-02-15T10:31:44.984Z,1006.76
2018-02-15T10:32:44.934Z,1006.80
2018-02-15T10:33:44.885Z,1006.82
2018-02-15T10:34:44.838Z,1006.83
2018-02-15T10:35:44.786Z,1006.93
2018-02-15T10:36:44.742Z,1006.84
2018-02-15T10:37:44.691Z,1006.88
2018-02-15T10:38:44.641Z,1006.95
2018-02-15T10:39:44.592Z,1006.88
2018-02-15T10:40:44.542Z,1006.88
2018-02-15T10:41:44.496Z,1006.94
2018-02-15T10:42:44.446Z,1006.92
2018-02-15T10:43:44.399Z,1006.94
2018-02-15T10:44:44.351Z,1006.92
2018-02-15T10:45:44.301Z,1007.02
2018-02-15T10:46:44.256Z,1006.97
2018-02-15T10:47:44.202Z,1007.00
2018-02-15T10:48:44.151Z,1006.99
2018-02-15T10:49:44.102Z,1006.93
2018-02-15T10:50:44.054Z,1006.93
2018-02-15T10:51:44.007Z,1006.97
2018-02-15T10:52:43.957Z,1007.04
2018-02-15T10:53:43.908Z,1006.88
2018-02-15T10:54:43.862Z,1006.89
2018-02-15T10:55:43.813Z,1006.90
2018-02-15T10:56:43.763Z,1007.00
2018-02-15T10:57:43.711Z,1006.93
2018-02-15T10:58:43.664Z,1006.90
2018-02-15T10:59:43.614Z,1007.03
2018-02-15T11:00:43.565Z,1007.16
2018-02-15T11:01:43.516Z,1007.23
2018-02-15T11:02:43.468Z,1007.30
2018-02-15T11:03:43.421Z,1007.27
2018-02-15T11:04:43.371Z,1007.34
2018-02-15T11:05:43.319Z,1007.32
2018-02-15T11:06:43.271Z,1007.15
2018-02-15T11:07:43.223Z,1007.21
2018-02-15T11:08:43.178Z,1007.14
2018-02-15T11:09:43.125Z,1007.04
2018-02-15T11:10:43.077Z,1007.20
2018-02-15T11:11:43.033Z,1007.26
2018-02-15T11:12:42.976Z,1007.28
2018-02-15T11:13:42.938Z,1007.25
2018-02-15T11:14:42.880Z,1007.32
2018-02-15T11:15:42.832Z,1007.32
2018-02-15T11:16:42.790Z,1007.30
2018-02-15T11:17:42.736Z,1007.32
2018-02-15T11:18:42.684Z,1007.32
2018-02-15T11:19:42.635Z,1007.23
2018-02-15T11:20:42.586Z,1007.24
2018-02-15T11:21:42.544Z,1007.27
2018-02-15T11:22:42.488Z,1007.32
2018-02-15T11:23:42.442Z,1007.30
2018-02-15T11:24:42.397Z,1007.27
2018-02-15T11:25:42.343Z,1007.32
2018-02-15T11:26:42.296Z,1007.32
2018-02-15T11:27:42.246Z,1007.27
2018-02-15T11:28:42.198Z,1007.38
2018-02-15T11:29:42.147Z,1007.22
2018-02-15T11:30:42.102Z,1007.31
2018-02-15T11:31:42.093Z,1007.21
2018-02-15T11:32:42.001Z,1007.32
2018-02-15T11:33:41.957Z,1007.29
2018-02-15T11:34:41.906Z,1007.31
2018-02-15T11:35:41.857Z,1007.38
2018-02-15T11:36:41.820Z,1007.35
2018-02-15T11:37:41.758Z,1007.40
2018-02-15T11:38:41.712Z,1007.34
2018-02-15T11:39:41.665Z,1007.33
2018-02-15T11:40:41.614Z,1007.30
2018-02-15T11:41:41.567Z,1007.41
2018-02-15T11:42:41.522Z,1007.35
2018-02-15T11:43:41.472Z,1007.42
2018-02-15T11:44:41.421Z,1007.35
2018-02-15T11:45:41.372Z,1007.35
2018-02-15T11:46:41.322Z,1007.41
2018-02-15T11:47:41.270Z,1007.37
2018-02-15T11:48:41.227Z,1007.42
2018-02-15T11:49:41.176Z,1007.44
2018-02-15T11:50:41.128Z,1007.43
2018-02-15T11:51:41.079Z,1007.40
2018-02-15T11:52:41.029Z,1007.39
2018-02-15T11:53:40.981Z,1007.44
2018-02-15T11:54:40.932Z,1007.44
2018-02-15T11:55:40.893Z,1007.43
2018-02-15T11:56:40.878Z,1007.49
2018-02-15T11:57:40.788Z,1007.49
2018-02-15T11:58:40.738Z,1007.51
2018-02-15T11:59:40.690Z,1007.53
2018-02-15T12:00:40.642Z,1007.52
2018-02-15T12:01:40.592Z,1007.56
2018-02-15T12:02:40.548Z,1007.57
2018-02-15T12:03:40.497Z,1007.59
2018-02-15T12:04:40.447Z,1007.56
2018-02-15T12:05:40.400Z,1007.60